The Lakes, Nevada
Current Conditions -  °F | °C
As of 5:53 AM on Thursday 30 Oct 2014 (Local Time) from KVGT Reporting Station
Clear Clear  
Wind Chill: 13°   Ceiling: Unl
Heat Index: 13°   Visibility: 10mi
Dew Point: -4°   Wind: 7mph
Humidity: 31%   Direction: 320°NW
Pressure: 30.08"   Gusts: NA
Location:  36.14°N, 115.29°W
Report Text: KVGT 301253Z 32006KT 10SM CLR 13/M04 A3008 RMK AO2 SLP189 T01281039
Loading
Personal Weather Stations






























Interactive Weather Map
Tropical Storm Tracking
New forecast layout! Learn more

10-Day Weather Forecast

Advertisements
Track Severe Weather on mobile